Time;durP1;ratioP1;P1;durP2;ratioP2;P2;SDS_P1;SDS_P2;PMS_P1;PMS_P2;Temp;Humidity;BMP_temperature;BMP_pressure;BME280_temperature;BME280_humidity;BME280_pressure;Samples;Min_cycle;Max_cycle;Signal;HPM_P1;HPM_P2
2022/02/12 00:02:25;;;;;;;;;;;-0.80;99.90;;;;;;5031547;28;19932;-73
2022/02/12 00:04:52;;;;;;;;;;;-0.80;99.90;;;;;;5025925;28;20379;-73
2022/02/12 00:07:19;;;;;;;;;;;-0.80;99.90;;;;;;5030147;28;19925;-72
2022/02/12 00:09:45;;;;;;;;;;;-0.80;99.90;;;;;;5030457;28;19933;-73
2022/02/12 00:12:12;;;;;;;;;;;-0.90;99.90;;;;;;5038952;28;19929;-73
2022/02/12 00:14:38;;;;;;;;;;;-0.90;99.90;;;;;;5029862;28;20289;-72
2022/02/12 00:17:06;;;;;;;;;;;-1.00;99.90;;;;;;5031295;28;20035;-73
2022/02/12 00:19:33;;;;;;;;;;;-1.00;99.90;;;;;;5030157;28;19932;-73
2022/02/12 00:22:00;;;;;;;;;;;-1.00;99.90;;;;;;5029933;28;20020;-72
2022/02/12 00:24:26;;;;;;;;;;;-0.90;99.90;;;;;;5036039;28;19925;-73
2022/02/12 00:26:53;;;;;;;;;;;-0.90;99.90;;;;;;5030741;28;19929;-73
2022/02/12 00:29:20;;;;;;;;;;;-1.00;99.90;;;;;;5034039;28;19929;-73
2022/02/12 00:31:46;;;;;;;;;;;-1.00;99.90;;;;;;5033340;28;20000;-73
2022/02/12 00:34:14;;;;;;;;;;;-1.00;99.90;;;;;;5031034;28;20368;-72
2022/02/12 00:36:41;;;;;;;;;;;-0.90;99.90;;;;;;5031422;28;20287;-73
2022/02/12 00:39:10;;;;;;;;;;;-0.90;99.90;;;;;;5032469;28;19932;-73
2022/02/12 00:41:36;;;;;;;;;;;-0.80;99.90;;;;;;5029962;28;20004;-73
2022/02/12 00:44:03;;;;;;;;;;;-0.80;99.90;;;;;;5029422;28;19932;-74
2022/02/12 00:46:29;;;;;;;;;;;-0.70;99.90;;;;;;5034048;28;19925;-73
2022/02/12 00:48:56;;;;;;;;;;;-0.70;99.90;;;;;;5021836;28;19933;-72
2022/02/12 00:51:25;;;;;;;;;;;-0.70;99.90;;;;;;5026937;28;19929;-72
2022/02/12 00:53:52;;;;;;;;;;;-0.80;99.90;;;;;;5036397;28;19936;-72
2022/02/12 00:56:19;;;;;;;;;;;-0.70;99.90;;;;;;5027224;28;19926;-73
2022/02/12 00:58:45;;;;;;;;;;;-0.70;99.90;;;;;;5032581;28;19932;-73
2022/02/12 01:01:12;;;;;;;;;;;-0.60;99.90;;;;;;5026076;28;19925;-73
2022/02/12 01:03:39;;;;;;;;;;;-0.60;99.90;;;;;;5027747;28;19929;-73
2022/02/12 01:06:05;;;;;;;;;;;-0.50;99.90;;;;;;5027635;28;20349;-73
2022/02/12 01:08:33;;;;;;;;;;;-0.50;99.90;;;;;;5031692;28;20092;-72
2022/02/12 01:11:00;;;;;;;;;;;-0.60;99.90;;;;;;5036481;28;19925;-73
2022/02/12 01:13:27;;;;;;;;;;;-0.60;99.90;;;;;;5018852;28;19932;-73
2022/02/12 01:15:53;;;;;;;;;;;-0.60;99.90;;;;;;5025745;28;19941;-73
2022/02/12 01:18:20;;;;;;;;;;;-0.70;99.90;;;;;;5026101;28;19925;-73
2022/02/12 01:20:47;;;;;;;;;;;-0.70;99.90;;;;;;5035490;28;20280;-72
2022/02/12 01:23:13;;;;;;;;;;;-0.70;99.90;;;;;;5041983;28;19926;-71
2022/02/12 01:25:41;;;;;;;;;;;-0.70;99.90;;;;;;5023397;28;20037;-72
2022/02/12 01:28:08;;;;;;;;;;;-0.80;99.90;;;;;;5030374;28;19933;-72
2022/02/12 01:30:35;;;;;;;;;;;-0.80;99.90;;;;;;5033269;28;19932;-72
2022/02/12 01:33:01;;;;;;;;;;;-1.00;99.90;;;;;;5030803;28;19933;-73
2022/02/12 01:35:28;;;;;;;;;;;-1.00;99.90;;;;;;5025633;28;19937;-72
2022/02/12 01:37:55;;;;;;;;;;;-1.10;99.90;;;;;;5028572;28;19940;-72
2022/02/12 01:40:24;;;;;;;;;;;-1.10;99.90;;;;;;5027385;28;19972;-72
2022/02/12 01:42:53;;;;;;;;;;;-1.10;99.90;;;;;;5024590;28;19939;-73
2022/02/12 01:45:20;;;;;;;;;;;-1.10;99.90;;;;;;5028527;28;19979;-73
2022/02/12 01:47:46;;;;;;;;;;;-1.20;99.90;;;;;;5028295;28;20019;-73
2022/02/12 01:50:14;;;;;;;;;;;-1.10;99.90;;;;;;5029013;28;19932;-72
2022/02/12 01:52:42;;;;;;;;;;;-1.10;99.90;;;;;;5033686;28;19925;-72
2022/02/12 01:55:11;;;;;;;;;;;-1.10;99.90;;;;;;5027504;28;19925;-73
2022/02/12 01:57:37;;;;;;;;;;;-1.10;99.90;;;;;;5030926;28;19929;-72
2022/02/12 02:00:07;;;;;;;;;;;-1.10;99.90;;;;;;5028811;28;19925;-72
2022/02/12 02:02:34;;;;;;;;;;;-1.10;99.90;;;;;;5032586;28;19933;-72
2022/02/12 02:05:01;;;;;;;;;;;-1.10;99.90;;;;;;5031790;28;19925;-72
2022/02/12 02:07:27;;;;;;;;;;;-1.10;99.90;;;;;;5032563;28;19971;-72
2022/02/12 02:09:54;;;;;;;;;;;-1.00;99.90;;;;;;5033434;28;19925;-71
2022/02/12 02:12:21;;;;;;;;;;;-0.90;99.90;;;;;;5031958;28;19925;-72
2022/02/12 02:14:47;;;;;;;;;;;-1.00;99.90;;;;;;5031841;28;19929;-72
2022/02/12 02:17:15;;;;;;;;;;;-1.00;99.90;;;;;;5039931;28;19935;-71
2022/02/12 02:19:42;;;;;;;;;;;-1.10;99.90;;;;;;5029756;28;20463;-72
2022/02/12 02:22:10;;;;;;;;;;;-1.10;99.90;;;;;;5038549;28;19925;-72
2022/02/12 02:24:38;;;;;;;;;;;-1.10;99.90;;;;;;5030500;28;20543;-72
2022/02/12 02:27:06;;;;;;;;;;;-1.10;99.90;;;;;;5030916;28;19932;-72
2022/02/12 02:29:32;;;;;;;;;;;-1.10;99.90;;;;;;5031436;28;19936;-72
2022/02/12 02:31:59;;;;;;;;;;;-1.20;99.90;;;;;;5037991;28;20024;-72
2022/02/12 02:34:26;;;;;;;;;;;-1.20;99.90;;;;;;5031157;28;19925;-72
2022/02/12 02:36:53;;;;;;;;;;;-1.20;99.90;;;;;;5035018;28;19929;-72
2022/02/12 02:39:19;;;;;;;;;;;-1.20;99.90;;;;;;5042750;28;19929;-73
2022/02/12 02:41:47;;;;;;;;;;;-1.20;99.90;;;;;;5043855;28;20292;-72
2022/02/12 02:44:14;;;;;;;;;;;-1.20;99.90;;;;;;5031272;28;19929;-72
2022/02/12 02:46:40;;;;;;;;;;;-1.20;99.90;;;;;;5033757;28;20020;-72
2022/02/12 02:49:07;;;;;;;;;;;-1.10;99.90;;;;;;5036318;28;19925;-72
2022/02/12 02:57:02;;;;;;;;;;;-1.10;99.90;;;;;;5045857;28;20016;-72
2022/02/12 02:59:29;;;;;;;;;;;-1.10;99.90;;;;;;5032511;28;19925;-73
2022/02/12 03:01:56;;;;;;;;;;;-1.10;99.90;;;;;;5045185;28;20396;-72
2022/02/12 03:04:23;;;;;;;;;;;-1.10;99.90;;;;;;5032828;28;20415;-72
2022/02/12 03:06:50;;;;;;;;;;;-1.10;99.90;;;;;;5043864;28;19925;-72
2022/02/12 03:09:16;;;;;;;;;;;-1.10;99.90;;;;;;5032183;28;19925;-72
2022/02/12 03:11:43;;;;;;;;;;;-1.10;99.90;;;;;;5030347;28;19925;-72
2022/02/12 03:14:11;;;;;;;;;;;-1.10;99.90;;;;;;5032777;28;19931;-73
2022/02/12 03:16:38;;;;;;;;;;;-1.10;99.90;;;;;;5037303;28;19929;-73
2022/02/12 03:19:05;;;;;;;;;;;-1.10;99.90;;;;;;5036282;28;20380;-72
2022/02/12 03:21:31;;;;;;;;;;;-1.10;99.90;;;;;;5037836;28;19925;-75
2022/02/12 03:23:58;;;;;;;;;;;-1.10;99.90;;;;;;5034294;28;19929;-72
2022/02/12 03:26:25;;;;;;;;;;;-1.10;99.90;;;;;;5029609;28;19925;-72
2022/02/12 03:28:51;;;;;;;;;;;-1.10;99.90;;;;;;5030282;28;19932;-73
2022/02/12 03:31:19;;;;;;;;;;;-1.20;99.90;;;;;;5035528;28;19925;-72
2022/02/12 03:33:46;;;;;;;;;;;-1.20;99.90;;;;;;5033450;28;19925;-72
2022/02/12 03:36:12;;;;;;;;;;;-1.30;99.90;;;;;;5027504;28;20369;-72
2022/02/12 03:38:43;;;;;;;;;;;-1.30;99.90;;;;;;5039334;28;19947;-72
2022/02/12 03:41:10;;;;;;;;;;;-1.30;99.90;;;;;;5040753;28;20007;-72
2022/02/12 03:43:38;;;;;;;;;;;-1.30;99.90;;;;;;5031820;28;20028;-72
2022/02/12 03:46:05;;;;;;;;;;;-1.20;99.90;;;;;;5031090;28;19925;-72
2022/02/12 03:48:33;;;;;;;;;;;-1.20;99.90;;;;;;5029537;28;19925;-72
2022/02/12 03:51:00;;;;;;;;;;;-1.20;99.90;;;;;;5030183;28;19932;-72
2022/02/12 03:53:27;;;;;;;;;;;-1.30;99.90;;;;;;5030163;28;19933;-72
2022/02/12 03:55:53;;;;;;;;;;;-1.30;99.90;;;;;;5028891;28;19925;-72
2022/02/12 03:58:20;;;;;;;;;;;-1.20;99.90;;;;;;5032266;28;19925;-72
2022/02/12 04:00:48;;;;;;;;;;;-1.10;99.90;;;;;;5029978;28;19932;-72
2022/02/12 04:03:15;;;;;;;;;;;-1.10;99.90;;;;;;5039072;28;19925;-73
2022/02/12 04:05:44;;;;;;;;;;;-1.20;99.90;;;;;;5038061;28;19925;-71
2022/02/12 04:08:12;;;;;;;;;;;-1.30;99.90;;;;;;5031823;28;19979;-72
2022/02/12 04:10:39;;;;;;;;;;;-1.40;99.90;;;;;;5033862;28;19940;-71
2022/02/12 04:13:06;;;;;;;;;;;-1.40;99.90;;;;;;5029804;28;19925;-71
2022/02/12 04:15:33;;;;;;;;;;;-1.40;99.90;;;;;;5036740;28;19924;-71
2022/02/12 04:18:00;;;;;;;;;;;-1.20;99.90;;;;;;5030804;28;19925;-71
2022/02/12 04:20:27;;;;;;;;;;;-1.20;99.90;;;;;;5035503;28;19925;-72
2022/02/12 04:22:55;;;;;;;;;;;-1.20;99.90;;;;;;5031231;28;19956;-71
2022/02/12 04:25:22;;;;;;;;;;;-1.20;99.90;;;;;;5029906;28;20028;-72
2022/02/12 04:27:49;;;;;;;;;;;-1.20;99.90;;;;;;5031545;28;20331;-72
2022/02/12 04:30:15;;;;;;;;;;;-1.20;99.90;;;;;;5030490;28;19925;-72
2022/02/12 04:32:42;;;;;;;;;;;-1.30;99.90;;;;;;5028951;28;19925;-72
2022/02/12 04:35:10;;;;;;;;;;;-1.30;99.90;;;;;;5028892;28;20303;-72
2022/02/12 04:37:37;;;;;;;;;;;-1.40;99.90;;;;;;5028341;28;20392;-71
2022/02/12 04:40:06;;;;;;;;;;;-1.40;99.90;;;;;;5032263;28;20019;-71
2022/02/12 04:42:33;;;;;;;;;;;-1.40;99.90;;;;;;5034068;28;19968;-72
2022/02/12 04:44:59;;;;;;;;;;;-1.30;99.90;;;;;;5030296;28;19932;-73
2022/02/12 04:47:26;;;;;;;;;;;-1.40;99.90;;;;;;5030907;28;20020;-71
2022/02/12 04:49:53;;;;;;;;;;;-1.40;99.90;;;;;;5031508;28;20040;-72
2022/02/12 04:52:20;;;;;;;;;;;-1.40;99.90;;;;;;5036951;28;20390;-72
2022/02/12 04:54:47;;;;;;;;;;;-1.40;99.90;;;;;;5027810;28;19924;-73
2022/02/12 04:57:15;;;;;;;;;;;-1.30;99.90;;;;;;5038217;28;20008;-71
2022/02/12 04:59:42;;;;;;;;;;;-1.40;99.90;;;;;;5028086;28;20424;-71
2022/02/12 05:02:09;;;;;;;;;;;-1.40;99.90;;;;;;5035916;28;20311;-72
2022/02/12 05:04:35;;;;;;;;;;;-1.40;99.90;;;;;;5028477;28;20384;-71
2022/02/12 05:07:02;;;;;;;;;;;-1.40;99.90;;;;;;5029648;28;19925;-71
2022/02/12 05:09:31;;;;;;;;;;;-1.40;99.90;;;;;;5029866;28;20035;-71
2022/02/12 05:11:57;;;;;;;;;;;-1.50;99.90;;;;;;5028229;28;19925;-70
2022/02/12 05:14:29;;;;;;;;;;;-1.50;99.90;;;;;;5030126;28;19964;-71
2022/02/12 05:16:56;;;;;;;;;;;-1.50;99.90;;;;;;5030887;28;19925;-72
2022/02/12 05:19:22;;;;;;;;;;;-1.50;99.90;;;;;;5032084;28;19963;-71
2022/02/12 05:21:49;;;;;;;;;;;-1.40;99.90;;;;;;5024840;28;19933;-71
2022/02/12 05:24:16;;;;;;;;;;;-1.40;99.90;;;;;;5028198;28;19925;-71
2022/02/12 05:26:42;;;;;;;;;;;-1.40;99.90;;;;;;5028436;28;20679;-72
2022/02/12 05:29:09;;;;;;;;;;;-1.40;99.90;;;;;;5029164;28;19948;-72
2022/02/12 05:31:37;;;;;;;;;;;-1.40;99.90;;;;;;5036128;28;19925;-71
2022/02/12 05:34:04;;;;;;;;;;;-1.40;99.90;;;;;;5030480;28;19925;-71
2022/02/12 05:36:30;;;;;;;;;;;-1.40;99.90;;;;;;5028279;28;19925;-72
2022/02/12 05:38:57;;;;;;;;;;;-1.40;99.90;;;;;;5028601;28;19925;-72
2022/02/12 05:41:24;;;;;;;;;;;-1.50;99.90;;;;;;5026111;28;19926;-72
2022/02/12 05:43:50;;;;;;;;;;;-1.40;99.90;;;;;;5026722;28;19933;-73
2022/02/12 05:46:17;;;;;;;;;;;-1.40;99.90;;;;;;5028860;28;20012;-72
2022/02/12 05:48:45;;;;;;;;;;;-1.30;99.90;;;;;;5027602;28;19933;-72
2022/02/12 05:51:12;;;;;;;;;;;-1.30;99.90;;;;;;5027914;28;19971;-72
2022/02/12 05:53:39;;;;;;;;;;;-1.30;99.90;;;;;;5018615;28;19940;-72
2022/02/12 05:56:06;;;;;;;;;;;-1.40;99.90;;;;;;5026382;28;19929;-71
2022/02/12 05:58:33;;;;;;;;;;;-1.40;99.90;;;;;;5029831;28;19931;-71
2022/02/12 06:00:59;;;;;;;;;;;-1.40;99.90;;;;;;5032146;28;19929;-72
2022/02/12 06:03:26;;;;;;;;;;;-1.40;99.90;;;;;;5030049;28;19947;-72
2022/02/12 06:05:54;;;;;;;;;;;-1.30;99.90;;;;;;5029201;28;19929;-72
2022/02/12 06:08:21;;;;;;;;;;;-1.40;99.90;;;;;;5029083;28;20566;-71
2022/02/12 06:10:50;;;;;;;;;;;-1.30;99.90;;;;;;5037594;28;19924;-71
2022/02/12 06:13:17;;;;;;;;;;;-1.30;99.90;;;;;;5046545;28;20402;-72
2022/02/12 06:15:44;;;;;;;;;;;-1.40;99.90;;;;;;5026446;28;20300;-72
2022/02/12 06:18:10;;;;;;;;;;;-1.40;99.90;;;;;;5033380;28;19931;-72
2022/02/12 06:20:37;;;;;;;;;;;-1.40;99.90;;;;;;5030397;28;19925;-71
2022/02/12 06:23:05;;;;;;;;;;;-1.30;99.90;;;;;;5029248;28;19932;-72
2022/02/12 06:25:31;;;;;;;;;;;-1.30;99.90;;;;;;5029134;28;19925;-72
2022/02/12 06:27:58;;;;;;;;;;;-1.40;99.90;;;;;;5029977;28;20303;-72
2022/02/12 06:30:25;;;;;;;;;;;-1.50;99.90;;;;;;5027481;28;19933;-72
2022/02/12 06:32:52;;;;;;;;;;;-1.50;99.90;;;;;;5034278;28;19925;-72
2022/02/12 06:35:19;;;;;;;;;;;-1.50;99.90;;;;;;5037601;28;19933;-73
2022/02/12 06:37:46;;;;;;;;;;;-1.50;99.90;;;;;;5034815;28;19932;-73
2022/02/12 06:40:14;;;;;;;;;;;-1.50;99.90;;;;;;5029775;28;19925;-73
2022/02/12 06:42:42;;;;;;;;;;;-1.50;99.90;;;;;;5040556;28;19925;-72
2022/02/12 06:45:09;;;;;;;;;;;-1.50;99.90;;;;;;5042122;28;19979;-73
2022/02/12 06:47:36;;;;;;;;;;;-1.50;99.90;;;;;;5032040;28;19932;-74
2022/02/12 06:50:03;;;;;;;;;;;-1.50;99.90;;;;;;5029368;28;19925;-73
2022/02/12 06:52:30;;;;;;;;;;;-1.50;99.90;;;;;;5030496;28;19940;-73
2022/02/12 06:54:57;;;;;;;;;;;-1.50;99.90;;;;;;5041011;28;20384;-73
2022/02/12 06:57:25;;;;;;;;;;;-1.50;99.90;;;;;;5034396;28;19999;-73
2022/02/12 06:59:52;;;;;;;;;;;-1.40;99.90;;;;;;5031252;28;19936;-73
2022/02/12 07:02:19;;;;;;;;;;;-1.40;99.90;;;;;;5034416;28;19940;-72
2022/02/12 07:04:45;;;;;;;;;;;-1.40;99.90;;;;;;5039357;28;20417;-74
2022/02/12 07:07:14;;;;;;;;;;;-1.40;99.90;;;;;;5038835;28;20410;-74
2022/02/12 07:09:40;;;;;;;;;;;-1.40;99.90;;;;;;5025933;28;19933;-74
2022/02/12 07:12:08;;;;;;;;;;;-1.50;99.90;;;;;;5027836;28;20376;-74
2022/02/12 07:14:36;;;;;;;;;;;-1.50;99.90;;;;;;5029509;28;19925;-74
2022/02/12 07:17:04;;;;;;;;;;;-1.50;99.90;;;;;;5028774;28;20299;-74
2022/02/12 07:19:30;;;;;;;;;;;-1.40;99.90;;;;;;5028149;28;19933;-74
2022/02/12 07:21:57;;;;;;;;;;;-1.40;99.90;;;;;;5030598;28;19931;-75
2022/02/12 07:24:24;;;;;;;;;;;-1.40;99.90;;;;;;5028479;28;19925;-74
2022/02/12 07:26:50;;;;;;;;;;;-1.40;99.90;;;;;;5030504;28;20380;-75
2022/02/12 07:29:17;;;;;;;;;;;-1.30;99.90;;;;;;5034545;28;20032;-75
2022/02/12 07:31:45;;;;;;;;;;;-1.30;99.90;;;;;;5052464;28;19967;-75
2022/02/12 07:34:15;;;;;;;;;;;-1.20;99.90;;;;;;5031233;28;19931;-74
2022/02/12 07:36:41;;;;;;;;;;;-1.20;99.90;;;;;;5050710;28;19946;-74
2022/02/12 07:39:08;;;;;;;;;;;-1.20;99.90;;;;;;5038876;28;19976;-74
2022/02/12 07:41:35;;;;;;;;;;;-1.20;99.90;;;;;;5042910;28;19925;-74
2022/02/12 07:44:01;;;;;;;;;;;-1.20;99.90;;;;;;5031619;28;19937;-74
2022/02/12 07:46:28;;;;;;;;;;;-1.20;99.90;;;;;;5048848;28;19924;-75
2022/02/12 07:48:56;;;;;;;;;;;-1.20;99.90;;;;;;5041032;28;19931;-74
2022/02/12 07:51:23;;;;;;;;;;;-1.10;99.90;;;;;;5037248;28;19932;-74
2022/02/12 07:53:50;;;;;;;;;;;-1.00;99.90;;;;;;5029239;28;19940;-74
2022/02/12 07:56:16;;;;;;;;;;;-0.90;99.90;;;;;;5039882;28;19925;-74
2022/02/12 07:58:43;;;;;;;;;;;-0.90;99.90;;;;;;5041143;28;19936;-74
2022/02/12 08:01:10;;;;;;;;;;;-0.80;99.90;;;;;;5041473;28;20310;-74
2022/02/12 08:03:36;;;;;;;;;;;-0.70;99.90;;;;;;5034244;28;19924;-74
2022/02/12 08:07:27;;;;;;;;;;;-0.60;99.90;;;;;;5026719;28;19925;-74
2022/02/12 08:08:51;;;;;;;;;;;-0.60;99.90;;;;;;5031434;28;19931;-73
2022/02/12 08:11:24;;;;;;;;;;;-0.50;99.90;;;;;;5031101;28;20027;-73
2022/02/12 08:13:51;;;;;;;;;;;-0.50;99.90;;;;;;5030629;28;20303;-74
2022/02/12 08:16:17;;;;;;;;;;;-0.30;99.90;;;;;;5030890;28;19940;-74
2022/02/12 08:18:44;;;;;;;;;;;-0.10;99.90;;;;;;5020874;28;19973;-74
2022/02/12 08:21:12;;;;;;;;;;;0.00;99.90;;;;;;5027175;28;19925;-74
2022/02/12 08:23:41;;;;;;;;;;;0.10;99.90;;;;;;5032983;28;20008;-75
2022/02/12 08:26:08;;;;;;;;;;;0.20;99.90;;;;;;5027190;28;19929;-74
2022/02/12 08:28:35;;;;;;;;;;;0.60;99.90;;;;;;5029278;28;19925;-74
2022/02/12 08:31:01;;;;;;;;;;;3.30;99.90;;;;;;5031332;28;19925;-74
2022/02/12 08:33:29;;;;;;;;;;;5.40;99.90;;;;;;5036237;28;19933;-74
2022/02/12 08:35:56;;;;;;;;;;;7.40;99.90;;;;;;5031998;28;19925;-74
2022/02/12 08:38:24;;;;;;;;;;;9.10;91.50;;;;;;5025449;28;20485;-71
2022/02/12 08:40:51;;;;;;;;;;;10.30;64.00;;;;;;5026585;28;19983;-70
2022/02/12 08:43:18;;;;;;;;;;;11.10;50.70;;;;;;5028522;28;19925;-71
2022/02/12 08:45:45;;;;;;;;;;;12.10;46.80;;;;;;5028224;28;19956;-71
2022/02/12 08:48:11;;;;;;;;;;;12.60;41.00;;;;;;5023882;28;20273;-72
2022/02/12 08:50:38;;;;;;;;;;;13.40;37.70;;;;;;5028497;28;19933;-72
2022/02/12 08:53:05;;;;;;;;;;;13.30;31.70;;;;;;5024677;28;19925;-72
2022/02/12 08:55:33;;;;;;;;;;;13.60;30.30;;;;;;5025205;28;19925;-72
2022/02/12 08:58:00;;;;;;;;;;;13.50;28.70;;;;;;5030228;28;19943;-74
2022/02/12 09:00:27;;;;;;;;;;;13.40;27.40;;;;;;5025023;28;19929;-73
2022/02/12 09:02:53;;;;;;;;;;;13.00;27.90;;;;;;5032921;28;19933;-71
2022/02/12 09:05:21;;;;;;;;;;;13.10;27.50;;;;;;5030001;28;19936;-74
2022/02/12 09:07:48;;;;;;;;;;;13.20;26.50;;;;;;5035115;28;19937;-72
2022/02/12 09:10:14;;;;;;;;;;;13.20;27.00;;;;;;5024807;28;20521;-72
2022/02/12 09:12:42;;;;;;;;;;;13.10;26.20;;;;;;5036094;28;19929;-72
2022/02/12 09:15:11;;;;;;;;;;;13.10;26.10;;;;;;5027083;28;20082;-72
2022/02/12 09:17:38;;;;;;;;;;;12.70;26.00;;;;;;5035502;28;20406;-74
2022/02/12 09:20:05;;;;;;;;;;;12.60;26.50;;;;;;5021093;28;19925;-73
2022/02/12 09:22:32;;;;;;;;;;;12.80;26.10;;;;;;5029098;28;19932;-72
2022/02/12 09:24:58;;;;;;;;;;;13.00;25.40;;;;;;5025927;28;19948;-72
2022/02/12 09:27:25;;;;;;;;;;;12.80;26.10;;;;;;5032324;28;19940;-72
2022/02/12 09:29:58;;;;;;;;;;;13.40;27.10;;;;;;5027371;28;20150;-72
2022/02/12 09:32:25;;;;;;;;;;;13.80;26.60;;;;;;5032255;28;19925;-71
2022/02/12 09:34:53;;;;;;;;;;;13.50;25.80;;;;;;5034295;28;19930;-72
2022/02/12 09:37:19;;;;;;;;;;;13.30;25.70;;;;;;5028838;28;19964;-72
2022/02/12 09:39:46;;;;;;;;;;;13.20;26.00;;;;;;5027597;28;19933;-72
2022/02/12 09:42:13;;;;;;;;;;;13.10;25.40;;;;;;5026252;28;19935;-74
2022/02/12 09:47:50;;;;;;;;;;;11.80;24.00;;;;;;5017095;28;20004;-75
2022/02/12 09:50:30;;;;;;;;;;;9.40;27.70;;;;;;5027207;28;19929;-78
2022/02/12 09:52:57;;;;;;;;;;;8.00;31.10;;;;;;5020637;28;20366;-72
2022/02/12 09:55:24;;;;;;;;;;;7.30;34.20;;;;;;5033103;28;19925;-73
2022/02/12 09:57:51;;;;;;;;;;;7.10;35.50;;;;;;5028370;28;19937;-72
2022/02/12 10:00:18;;;;;;;;;;;6.80;36.50;;;;;;5027458;28;20422;-72
2022/02/12 10:02:46;;;;;;;;;;;6.50;37.10;;;;;;5022947;28;19931;-72
2022/02/12 10:05:18;;;;;;;;;;;6.40;38.80;;;;;;5024714;28;19936;-71
2022/02/12 10:07:44;;;;;;;;;;;6.50;39.10;;;;;;5030935;28;19924;-72
2022/02/12 10:10:12;;;;;;;;;;;6.20;37.60;;;;;;5029249;28;20300;-72
2022/02/12 10:12:39;;;;;;;;;;;6.10;38.20;;;;;;5028717;28;19932;-72
2022/02/12 10:15:11;;;;;;;;;;;6.10;37.80;;;;;;5041532;28;20016;-72
2022/02/12 10:17:38;;;;;;;;;;;6.20;37.60;;;;;;5029148;28;19933;-71
2022/02/12 10:20:06;;;;;;;;;;;6.30;37.90;;;;;;5023715;28;19933;-72
2022/02/12 10:22:34;;;;;;;;;;;6.30;38.50;;;;;;5037044;28;20326;-73
2022/02/12 10:25:04;;;;;;;;;;;6.40;37.70;;;;;;5032784;28;19937;-71
2022/02/12 10:27:31;;;;;;;;;;;6.20;38.20;;;;;;5031503;28;19955;-71
2022/02/12 10:30:01;;;;;;;;;;;6.30;38.20;;;;;;5035048;28;19952;-71
2022/02/12 10:32:28;;;;;;;;;;;6.40;38.20;;;;;;5032242;28;19932;-71
2022/02/12 10:34:57;;;;;;;;;;;6.60;38.10;;;;;;5030439;28;20406;-73
2022/02/12 10:37:24;;;;;;;;;;;6.60;38.00;;;;;;5046338;28;19982;-75
2022/02/12 10:39:54;;;;;;;;;;;6.60;38.40;;;;;;5033472;28;20100;-74
2022/02/12 10:42:21;;;;;;;;;;;6.50;37.30;;;;;;5034008;28;19932;-74
2022/02/12 10:44:48;;;;;;;;;;;6.40;36.90;;;;;;5029893;28;19972;-74
2022/02/12 10:47:14;;;;;;;;;;;6.40;36.70;;;;;;5040357;28;20467;-74
2022/02/12 10:49:42;;;;;;;;;;;6.40;36.50;;;;;;5042471;28;19982;-74
2022/02/12 10:52:08;;;;;;;;;;;6.40;36.80;;;;;;5035008;28;19925;-73
2022/02/12 10:54:41;;;;;;;;;;;6.50;36.90;;;;;;5024523;28;19932;-73
2022/02/12 10:57:10;;;;;;;;;;;6.50;36.30;;;;;;5027213;28;19925;-73
2022/02/12 10:59:41;;;;;;;;;;;6.40;36.00;;;;;;5028731;28;19931;-73
2022/02/12 11:02:09;;;;;;;;;;;6.60;35.90;;;;;;5028206;28;22574;-72
2022/02/12 11:04:36;;;;;;;;;;;6.60;36.00;;;;;;5031766;28;19925;-73
2022/02/12 11:07:05;;;;;;;;;;;6.70;37.00;;;;;;5048027;28;19925;-74
2022/02/12 11:09:32;;;;;;;;;;;6.80;37.30;;;;;;5034150;28;19929;-78
2022/02/12 11:11:59;;;;;;;;;;;6.70;34.80;;;;;;5050200;28;20003;-76
2022/02/12 11:14:32;;;;;;;;;;;6.70;35.00;;;;;;5037182;28;20391;-72
2022/02/12 11:17:01;;;;;;;;;;;6.60;35.30;;;;;;5017587;28;20388;-73
2022/02/12 11:19:28;;;;;;;;;;;6.70;35.70;;;;;;5033610;28;19929;-72
2022/02/12 11:21:56;;;;;;;;;;;6.80;36.30;;;;;;5036109;28;19950;-73
2022/02/12 11:24:34;;;;;;;;;;;6.80;36.30;;;;;;5032204;28;19932;-73
2022/02/12 11:27:00;;;;;;;;;;;6.90;36.10;;;;;;5046067;28;19932;-73
2022/02/12 11:29:33;;;;;;;;;;;6.90;35.90;;;;;;5038577;28;19931;-73
2022/02/12 11:32:10;;;;;;;;;;;7.00;35.30;;;;;;5035800;28;20397;-75
2022/02/12 11:34:36;;;;;;;;;;;6.90;35.60;;;;;;5051357;28;19925;-71
2022/02/12 11:37:12;;;;;;;;;;;7.00;36.10;;;;;;5025584;28;19925;-73
2022/02/12 11:39:39;;;;;;;;;;;7.10;37.20;;;;;;5032274;28;19929;-72
2022/02/12 11:42:06;;;;;;;;;;;7.10;36.10;;;;;;5041045;28;20295;-71
2022/02/12 11:44:41;;;;;;;;;;;7.10;36.20;;;;;;5050031;28;19932;-70
2022/02/12 11:47:08;;;;;;;;;;;7.20;36.60;;;;;;5024728;28;19925;-71
2022/02/12 11:49:36;;;;;;;;;;;7.20;36.40;;;;;;5042830;28;20003;-72
2022/02/12 11:52:05;;;;;;;;;;;7.40;37.70;;;;;;5052249;28;19924;-71
2022/02/12 11:54:49;;;;;;;;;;;7.50;36.30;;;;;;5032498;28;19931;-73
2022/02/12 11:57:16;;;;;;;;;;;7.50;36.80;;;;;;5023748;28;19961;-72
2022/02/12 11:59:45;;;;;;;;;;;7.50;36.30;;;;;;5040739;28;19935;-73
2022/02/12 12:02:26;;;;;;;;;;;7.50;37.00;;;;;;5048308;28;19929;-72
2022/02/12 12:05:08;;;;;;;;;;;7.50;36.40;;;;;;5025862;28;19933;-72
2022/02/12 12:07:34;;;;;;;;;;;7.60;35.40;;;;;;5048808;28;20373;-74
2022/02/12 12:10:13;;;;;;;;;;;7.50;35.00;;;;;;5037077;28;19925;-71
2022/02/12 12:12:40;;;;;;;;;;;7.40;34.90;;;;;;5040480;28;19928;-71
2022/02/12 12:15:23;;;;;;;;;;;7.40;35.50;;;;;;5032189;28;20040;-72
2022/02/12 12:17:57;;;;;;;;;;;7.40;35.80;;;;;;5046647;28;20292;-72
2022/02/12 12:20:32;;;;;;;;;;;7.40;34.80;;;;;;5033845;28;19924;-72
2022/02/12 12:23:01;;;;;;;;;;;7.50;34.70;;;;;;5044978;28;19933;-71
2022/02/12 12:25:28;;;;;;;;;;;7.70;35.40;;;;;;5040874;28;19924;-71
2022/02/12 12:27:54;;;;;;;;;;;7.60;34.10;;;;;;5037087;28;19925;-72
2022/02/12 12:33:07;;;;;;;;;;;7.50;32.10;;;;;;5044345;28;19931;-71
2022/02/12 12:35:33;;;;;;;;;;;7.50;31.90;;;;;;5046652;28;20252;-72
2022/02/12 12:38:00;;;;;;;;;;;7.50;32.30;;;;;;5048047;28;20428;-72
2022/02/12 12:40:28;;;;;;;;;;;7.50;31.00;;;;;;5044334;28;19956;-72
2022/02/12 12:42:58;;;;;;;;;;;7.60;31.80;;;;;;5050586;28;19978;-71
2022/02/12 12:45:26;;;;;;;;;;;7.70;32.10;;;;;;5047416;28;20323;-72
2022/02/12 12:47:54;;;;;;;;;;;7.80;30.50;;;;;;5038506;28;19929;-71
2022/02/12 12:50:21;;;;;;;;;;;7.80;30.60;;;;;;5040779;28;19925;-72
2022/02/12 12:52:48;;;;;;;;;;;7.70;29.90;;;;;;5046956;28;19964;-71
2022/02/12 12:55:15;;;;;;;;;;;7.70;30.30;;;;;;5041348;28;20636;-72
2022/02/12 12:57:43;;;;;;;;;;;7.70;29.70;;;;;;5039782;28;19925;-74
2022/02/12 13:00:11;;;;;;;;;;;7.70;29.30;;;;;;5040070;28;19924;-73
2022/02/12 13:02:47;;;;;;;;;;;7.80;30.10;;;;;;5049919;28;19924;-73
2022/02/12 13:05:13;;;;;;;;;;;7.80;28.90;;;;;;5047990;28;19968;-72
2022/02/12 13:07:40;;;;;;;;;;;7.80;29.70;;;;;;5050823;28;20003;-74
2022/02/12 13:10:07;;;;;;;;;;;7.80;30.00;;;;;;5036077;28;19925;-72
2022/02/12 13:12:35;;;;;;;;;;;7.90;30.30;;;;;;5038091;28;19924;-72
2022/02/12 13:15:03;;;;;;;;;;;7.90;30.70;;;;;;5042334;28;19932;-72
2022/02/12 13:17:31;;;;;;;;;;;7.90;31.80;;;;;;5046081;28;20007;-72
2022/02/12 13:19:59;;;;;;;;;;;8.00;30.70;;;;;;5036675;28;19925;-72
2022/02/12 13:22:28;;;;;;;;;;;8.00;30.50;;;;;;5042000;28;19925;-72
2022/02/12 13:24:55;;;;;;;;;;;8.00;30.70;;;;;;5028593;28;19929;-73
2022/02/12 13:27:23;;;;;;;;;;;8.20;30.80;;;;;;5031612;28;19925;-73
2022/02/12 13:29:50;;;;;;;;;;;8.10;31.00;;;;;;5032163;28;20175;-73
2022/02/12 13:32:17;;;;;;;;;;;8.10;30.20;;;;;;5043735;28;19932;-74
2022/02/12 13:34:49;;;;;;;;;;;8.10;30.20;;;;;;5030313;28;19929;-75
2022/02/12 13:37:17;;;;;;;;;;;8.20;30.10;;;;;;5051058;28;19924;-72
2022/02/12 13:39:52;;;;;;;;;;;8.20;29.40;;;;;;5037851;28;19929;-73
2022/02/12 13:42:21;;;;;;;;;;;8.20;28.80;;;;;;5049259;28;19925;-73
2022/02/12 13:44:58;;;;;;;;;;;8.10;29.40;;;;;;5044389;28;20467;-72
2022/02/12 13:47:24;;;;;;;;;;;8.10;30.00;;;;;;5049965;28;19924;-73
2022/02/12 13:49:54;;;;;;;;;;;8.10;30.00;;;;;;5035986;28;19933;-73
2022/02/12 13:52:22;;;;;;;;;;;8.10;28.80;;;;;;5036459;28;20395;-73
2022/02/12 13:55:00;;;;;;;;;;;8.00;28.50;;;;;;5032684;28;19925;-72
2022/02/12 13:57:27;;;;;;;;;;;7.90;29.70;;;;;;5032405;28;20436;-72
2022/02/12 13:59:54;;;;;;;;;;;7.80;29.30;;;;;;5031727;28;20011;-72
2022/02/12 14:02:21;;;;;;;;;;;7.80;29.90;;;;;;5034582;28;20475;-72
2022/02/12 14:04:47;;;;;;;;;;;7.80;30.00;;;;;;5042368;28;19936;-73
2022/02/12 14:07:14;;;;;;;;;;;7.90;30.00;;;;;;5039007;28;19925;-72
2022/02/12 14:09:42;;;;;;;;;;;7.90;30.20;;;;;;5042881;28;19925;-72
2022/02/12 14:12:09;;;;;;;;;;;7.90;30.20;;;;;;5044164;28;19925;-73
2022/02/12 14:14:36;;;;;;;;;;;7.90;29.70;;;;;;5034146;28;19932;-72
2022/02/12 14:17:03;;;;;;;;;;;7.90;30.10;;;;;;5036919;28;20303;-72
2022/02/12 14:19:29;;;;;;;;;;;7.90;31.00;;;;;;5034145;28;19932;-72
2022/02/12 14:21:56;;;;;;;;;;;7.90;30.20;;;;;;5040028;28;20350;-73
2022/02/12 14:24:23;;;;;;;;;;;8.00;29.60;;;;;;5038256;28;19941;-72
2022/02/12 14:26:51;;;;;;;;;;;8.00;29.40;;;;;;5045465;28;19987;-73
2022/02/12 14:29:19;;;;;;;;;;;8.00;28.60;;;;;;5040598;28;19925;-72
2022/02/12 14:31:45;;;;;;;;;;;8.00;28.30;;;;;;5037777;28;20023;-72
2022/02/12 14:34:12;;;;;;;;;;;8.00;28.50;;;;;;5048240;28;19987;-72
2022/02/12 14:36:39;;;;;;;;;;;7.80;28.30;;;;;;5038288;28;19935;-72